Time;durP1;ratioP1;P1;durP2;ratioP2;P2;SDS_P1;SDS_P2;PMS_P1;PMS_P2;Temp;Humidity;BMP_temperature;BMP_pressure;BME280_temperature;BME280_humidity;BME280_pressure;Samples;Min_cycle;Max_cycle;Signal;HPM_P1;HPM_P2
2023/01/25 00:01:20;;;;;;;3.53;3.25;;;17.10;50.70;;;;;;5115653;28;20176;-52
2023/01/25 00:03:46;;;;;;;3.22;3.03;;;17.10;50.60;;;;;;5115394;28;20173;-54
2023/01/25 00:06:11;;;;;;;3.20;3.00;;;17.10;50.70;;;;;;5114993;28;20209;-56
2023/01/25 00:08:37;;;;;;;3.63;3.33;;;17.10;50.70;;;;;;5115504;28;20161;-56
2023/01/25 00:11:03;;;;;;;3.05;2.83;;;17.10;50.70;;;;;;5115747;28;20169;-55
2023/01/25 00:13:29;;;;;;;3.20;2.90;;;17.00;50.70;;;;;;5114924;28;20632;-53
2023/01/25 00:16:00;;;;;;;3.38;3.10;;;17.00;50.70;;;;;;5115164;28;20181;-55
2023/01/25 00:18:27;;;;;;;2.92;2.72;;;17.00;50.70;;;;;;5115301;28;20208;-53
2023/01/25 00:20:53;;;;;;;3.20;2.90;;;16.90;50.60;;;;;;5114498;28;20181;-55
2023/01/25 00:23:18;;;;;;;3.85;3.55;;;16.90;50.60;;;;;;5115410;28;20175;-56
2023/01/25 00:25:44;;;;;;;3.50;3.20;;;16.90;50.70;;;;;;5114807;28;20235;-53
2023/01/25 00:28:09;;;;;;;3.25;3.05;;;16.90;50.70;;;;;;5114470;28;20711;-54
2023/01/25 00:30:35;;;;;;;3.17;2.95;;;16.90;50.70;;;;;;5114853;28;20256;-54
2023/01/25 00:33:15;;;;;;;3.33;3.10;;;16.90;50.70;;;;;;5115002;28;20631;-53
2023/01/25 00:35:42;;;;;;;4.57;3.38;;;16.90;50.70;;;;;;5114140;28;20203;-52
2023/01/25 00:38:27;;;;;;;3.30;3.10;;;16.80;50.50;;;;;;5080110;28;20256;-55
2023/01/25 00:40:53;;;;;;;3.40;3.10;;;16.80;50.60;;;;;;5096480;28;20177;-54
2023/01/25 00:43:18;;;;;;;3.20;3.00;;;16.80;50.60;;;;;;5114879;28;20169;-55
2023/01/25 00:45:44;;;;;;;3.10;2.90;;;16.80;50.60;;;;;;5114392;28;20265;-54
2023/01/25 00:48:09;;;;;;;4.00;3.60;;;16.80;50.60;;;;;;5114184;28;20360;-55
2023/01/25 00:50:38;;;;;;;3.45;3.15;;;16.80;50.60;;;;;;5114652;28;20632;-56
2023/01/25 00:53:03;;;;;;;3.88;3.58;;;16.80;50.60;;;;;;5114618;28;20691;-55
2023/01/25 00:55:29;;;;;;;3.60;3.30;;;16.80;50.60;;;;;;5113972;28;20264;-51
2023/01/25 00:57:54;;;;;;;3.35;3.13;;;16.70;50.60;;;;;;5114204;28;20264;-54
2023/01/25 01:00:20;;;;;;;3.30;3.10;;;16.80;50.70;;;;;;5114767;28;20218;-54
2023/01/25 01:02:46;;;;;;;3.28;3.08;;;16.70;50.60;;;;;;5112818;28;20174;-55
2023/01/25 01:05:11;;;;;;;2.95;2.75;;;16.70;50.60;;;;;;5114567;28;20165;-53
2023/01/25 01:07:37;;;;;;;3.30;3.10;;;16.70;50.60;;;;;;5114029;28;20586;-53
2023/01/25 01:10:03;;;;;;;3.33;3.05;;;16.70;50.60;;;;;;5113644;28;20679;-54
2023/01/25 01:12:28;;;;;;;3.38;3.17;;;16.70;50.60;;;;;;5114195;28;20172;-57
2023/01/25 01:14:54;;;;;;;3.13;2.92;;;16.70;50.60;;;;;;5114178;28;20173;-57
2023/01/25 01:17:19;;;;;;;3.30;3.10;;;16.70;50.70;;;;;;5113514;28;20362;-52
2023/01/25 01:19:45;;;;;;;3.10;2.90;;;16.60;50.60;;;;;;5114011;28;20173;-52
2023/01/25 01:22:10;;;;;;;3.53;3.30;;;16.60;50.60;;;;;;5114206;28;20218;-54
2023/01/25 01:24:36;;;;;;;3.45;3.15;;;16.60;50.60;;;;;;5113119;28;20218;-54
2023/01/25 01:27:01;;;;;;;3.50;3.20;;;16.60;51.10;;;;;;5113939;28;20213;-52
2023/01/25 01:29:27;;;;;;;3.28;3.08;;;16.60;50.60;;;;;;5113950;28;20184;-51
2023/01/25 01:31:52;;;;;;;3.28;3.08;;;16.60;50.50;;;;;;5112828;28;20177;-55
2023/01/25 01:34:18;;;;;;;3.17;2.88;;;16.60;50.50;;;;;;5114508;28;20173;-52
2023/01/25 01:36:43;;;;;;;3.38;3.17;;;16.60;50.50;;;;;;5113626;28;20180;-52
2023/01/25 01:39:09;;;;;;;2.88;2.67;;;16.50;50.50;;;;;;5113114;28;20220;-52
2023/01/25 01:41:35;;;;;;;3.53;3.25;;;16.50;50.60;;;;;;5113360;28;20719;-56
2023/01/25 01:44:00;;;;;;;3.08;2.88;;;16.50;50.70;;;;;;5113954;28;20197;-51
2023/01/25 01:46:34;;;;;;;3.40;3.10;;;16.50;50.60;;;;;;5113155;28;20209;-52
2023/01/25 01:49:16;;;;;;;3.50;3.20;;;16.50;50.60;;;;;;5095718;28;20544;-52
2023/01/25 01:51:46;;;;;;;3.35;3.15;;;16.50;50.60;;;;;;5112670;28;20185;-52
2023/01/25 01:54:24;;;;;;;3.28;3.08;;;16.50;50.60;;;;;;5079371;28;20225;-50
2023/01/25 01:57:06;;;;;;;3.55;3.30;;;16.50;50.60;;;;;;5095972;28;20175;-55
2023/01/25 01:59:55;;;;;;;3.10;2.90;;;16.40;50.50;;;;;;5078505;28;20256;-53
2023/01/25 02:02:22;;;;;;;3.25;2.90;;;16.40;50.50;;;;;;5113542;28;20222;-54
2023/01/25 02:04:48;;;;;;;3.85;3.20;;;16.40;50.60;;;;;;5094956;28;20173;-54
2023/01/25 02:07:26;;;;;;;3.80;3.50;;;16.40;50.50;;;;;;5112979;28;20205;-57
2023/01/25 02:09:52;;;;;;;3.47;3.17;;;16.40;50.60;;;;;;5096037;28;20251;-57
2023/01/25 02:12:17;;;;;;;3.20;3.00;;;16.40;50.60;;;;;;5112757;28;20264;-56
2023/01/25 02:14:48;;;;;;;3.50;3.20;;;16.40;50.60;;;;;;5077996;28;20181;-49
2023/01/25 02:17:14;;;;;;;3.13;2.92;;;16.40;50.60;;;;;;5113061;28;20235;-52
2023/01/25 02:19:47;;;;;;;3.35;3.15;;;16.40;50.60;;;;;;5077551;28;20173;-52
2023/01/25 02:22:15;;;;;;;2.90;2.70;;;16.40;50.50;;;;;;5079050;28;20225;-53
2023/01/25 02:24:42;;;;;;;3.45;3.25;;;16.40;50.50;;;;;;5094972;28;20195;-55
2023/01/25 02:27:07;;;;;;;3.72;3.42;;;16.30;50.50;;;;;;5077631;28;20221;-56
2023/01/25 02:29:33;;;;;;;3.28;3.08;;;16.30;50.40;;;;;;5113001;28;20310;-50
2023/01/25 02:32:01;;;;;;;3.58;3.28;;;16.30;50.50;;;;;;5113255;28;20230;-54
2023/01/25 02:34:26;;;;;;;3.40;3.10;;;16.30;50.40;;;;;;5112613;28;20173;-57
2023/01/25 02:36:52;;;;;;;3.40;3.20;;;16.30;50.40;;;;;;5112996;28;20184;-56
2023/01/25 02:39:17;;;;;;;3.75;3.45;;;16.30;50.40;;;;;;5113109;28;20252;-52
2023/01/25 02:41:43;;;;;;;3.05;2.85;;;16.30;51.00;;;;;;5093972;28;20252;-54
2023/01/25 02:44:20;;;;;;;3.17;2.97;;;16.30;50.30;;;;;;5113081;28;20169;-54
2023/01/25 02:46:46;;;;;;;3.70;3.42;;;16.30;50.40;;;;;;5095560;28;20695;-52
2023/01/25 02:49:12;;;;;;;3.40;3.10;;;16.20;50.30;;;;;;5112436;28;20181;-53
2023/01/25 02:51:39;;;;;;;3.58;3.28;;;16.20;50.30;;;;;;5112688;28;20177;-48
2023/01/25 02:54:05;;;;;;;3.65;3.38;;;16.30;50.40;;;;;;5113299;28;20662;-49
2023/01/25 02:56:31;;;;;;;3.40;3.20;;;16.20;50.40;;;;;;5112145;28;20218;-49
2023/01/25 02:58:57;;;;;;;3.72;3.42;;;16.20;50.40;;;;;;5112898;28;20173;-53
2023/01/25 03:01:22;;;;;;;3.20;3.00;;;16.20;50.40;;;;;;5112864;28;20184;-50
2023/01/25 03:03:48;;;;;;;3.55;3.25;;;16.20;50.40;;;;;;5112018;28;20188;-49
2023/01/25 03:06:13;;;;;;;3.60;3.30;;;16.20;50.40;;;;;;5112826;28;20237;-52
2023/01/25 03:08:39;;;;;;;3.38;3.17;;;16.20;50.40;;;;;;5111813;28;20169;-51
2023/01/25 03:11:05;;;;;;;3.47;3.20;;;16.10;50.30;;;;;;5112707;28;20185;-51
2023/01/25 03:13:32;;;;;;;3.25;3.05;;;16.10;50.30;;;;;;5112561;28;20177;-52
2023/01/25 03:15:58;;;;;;;3.65;3.35;;;16.20;50.30;;;;;;5111854;28;20663;-53
2023/01/25 03:18:24;;;;;;;3.55;3.25;;;16.10;50.30;;;;;;5112590;28;20239;-53
2023/01/25 03:20:50;;;;;;;3.83;3.53;;;16.00;50.30;;;;;;5112503;28;20357;-52
2023/01/25 03:23:15;;;;;;;3.70;3.40;;;16.10;50.30;;;;;;5112158;28;20553;-54
2023/01/25 03:25:41;;;;;;;3.33;3.13;;;16.10;50.30;;;;;;5113396;28;20655;-54
2023/01/25 03:28:06;;;;;;;3.33;3.10;;;16.10;50.30;;;;;;5116360;28;20184;-54
2023/01/25 03:30:32;;;;;;;3.55;3.25;;;16.10;50.40;;;;;;5115417;28;20184;-48
2023/01/25 03:32:57;;;;;;;3.00;2.80;;;16.00;50.30;;;;;;5116356;28;20184;-50
2023/01/25 03:35:23;;;;;;;3.20;3.00;;;16.00;50.40;;;;;;5116195;28;20623;-55
2023/01/25 03:37:48;;;;;;;3.58;3.28;;;16.00;50.40;;;;;;5115262;28;20180;-53
2023/01/25 03:40:14;;;;;;;3.15;2.95;;;16.00;50.30;;;;;;5116130;28;20693;-54
2023/01/25 03:42:39;;;;;;;3.30;3.00;;;16.00;50.30;;;;;;5115631;28;20173;-54
2023/01/25 03:45:05;;;;;;;3.47;3.17;;;16.00;50.30;;;;;;5115502;28;20619;-55
2023/01/25 03:47:31;;;;;;;3.65;3.35;;;16.00;50.30;;;;;;5115959;28;20235;-51
2023/01/25 03:49:56;;;;;;;3.38;3.17;;;16.00;50.30;;;;;;5115996;28;20215;-51
2023/01/25 03:52:23;;;;;;;3.53;3.33;;;16.00;50.30;;;;;;5115353;28;20173;-54
2023/01/25 03:54:48;;;;;;;3.47;3.17;;;16.00;50.20;;;;;;5115555;28;20204;-53
2023/01/25 03:57:14;;;;;;;3.55;3.25;;;16.00;50.20;;;;;;5115806;28;20208;-51
2023/01/25 03:59:39;;;;;;;3.78;3.47;;;16.00;50.30;;;;;;5114710;28;20188;-53
2023/01/25 04:02:05;;;;;;;3.33;3.13;;;16.00;50.30;;;;;;5115807;28;20169;-51
2023/01/25 04:04:30;;;;;;;3.13;2.88;;;16.00;50.30;;;;;;5115709;28;20181;-53
2023/01/25 04:06:56;;;;;;;3.75;3.45;;;15.90;50.30;;;;;;5114813;28;20220;-53
2023/01/25 04:09:22;;;;;;;3.53;3.22;;;15.90;50.30;;;;;;5115603;28;20173;-51
2023/01/25 04:11:50;;;;;;;3.47;3.17;;;15.90;50.30;;;;;;5114830;28;20181;-54
2023/01/25 04:14:16;;;;;;;3.40;3.20;;;15.90;50.30;;;;;;5115646;28;20161;-50
2023/01/25 04:16:41;;;;;;;3.65;3.35;;;15.90;50.30;;;;;;5115106;28;20236;-55
2023/01/25 04:19:07;;;;;;;3.33;3.10;;;15.90;50.20;;;;;;5114905;28;20550;-52
2023/01/25 04:21:32;;;;;;;4.13;3.83;;;15.90;50.10;;;;;;5115221;28;20548;-51
2023/01/25 04:23:58;;;;;;;3.05;2.85;;;15.90;50.10;;;;;;5115254;28;20546;-54
2023/01/25 04:26:23;;;;;;;3.40;3.20;;;15.80;50.20;;;;;;5114441;28;20685;-50
2023/01/25 04:28:49;;;;;;;3.55;3.30;;;15.80;50.70;;;;;;5115053;28;20631;-52
2023/01/25 04:31:17;;;;;;;3.47;3.22;;;15.80;50.10;;;;;;5115294;28;20520;-58
2023/01/25 04:33:42;;;;;;;3.72;3.42;;;15.80;50.10;;;;;;5114078;28;20192;-54
2023/01/25 04:36:08;;;;;;;3.38;3.17;;;15.80;50.20;;;;;;5115095;28;20246;-56
2023/01/25 04:38:33;;;;;;;3.30;3.10;;;15.80;50.20;;;;;;5114810;28;20595;-52
2023/01/25 04:40:59;;;;;;;3.90;3.60;;;15.80;50.20;;;;;;5114347;28;20177;-56
2023/01/25 04:43:25;;;;;;;3.88;3.58;;;15.80;50.20;;;;;;5115125;28;20258;-53
2023/01/25 04:45:50;;;;;;;3.88;3.60;;;15.70;50.10;;;;;;5114442;28;20727;-54
2023/01/25 04:48:16;;;;;;;3.63;3.35;;;15.80;50.20;;;;;;5114080;28;20181;-56
2023/01/25 04:50:42;;;;;;;3.17;2.97;;;15.80;50.30;;;;;;5114513;28;20173;-54
2023/01/25 04:53:07;;;;;;;3.42;3.22;;;15.70;50.20;;;;;;5114738;28;20177;-55
2023/01/25 04:55:33;;;;;;;3.20;3.00;;;15.80;50.20;;;;;;5113711;28;20643;-54
2023/01/25 04:57:59;;;;;;;4.05;3.75;;;15.80;50.30;;;;;;5114719;28;20647;-50
2023/01/25 05:00:25;;;;;;;3.80;3.50;;;15.70;50.10;;;;;;5114786;28;20596;-56
2023/01/25 05:02:51;;;;;;;3.65;3.45;;;15.70;50.10;;;;;;5113528;28;20765;-52
2023/01/25 05:05:16;;;;;;;3.75;3.45;;;15.70;50.20;;;;;;5114509;28;20188;-56
2023/01/25 05:07:42;;;;;;;3.70;3.50;;;15.70;50.20;;;;;;5114131;28;20181;-54
2023/01/25 05:10:08;;;;;;;3.42;3.22;;;15.70;50.20;;;;;;5113636;28;20200;-53
2023/01/25 05:12:33;;;;;;;4.15;3.85;;;15.70;50.20;;;;;;5114228;28;20302;-52
2023/01/25 05:14:59;;;;;;;4.30;3.90;;;15.70;50.80;;;;;;5114374;28;20259;-54
2023/01/25 05:17:25;;;;;;;3.47;3.22;;;15.70;50.20;;;;;;5113385;28;20217;-53
2023/01/25 05:19:50;;;;;;;3.75;3.45;;;15.70;50.20;;;;;;5113970;28;20234;-54
2023/01/25 05:22:16;;;;;;;3.55;3.35;;;15.60;50.10;;;;;;5113554;28;20173;-54
2023/01/25 05:24:43;;;;;;;4.20;3.90;;;15.70;50.10;;;;;;5113695;28;20195;-55
2023/01/25 05:27:10;;;;;;;3.78;3.47;;;15.60;50.10;;;;;;5114230;28;20217;-56
2023/01/25 05:29:40;;;;;;;3.47;3.20;;;15.60;50.20;;;;;;5112947;28;20534;-52
2023/01/25 05:32:11;;;;;;;3.88;3.63;;;15.60;50.20;;;;;;5114049;28;20181;-54
2023/01/25 05:34:36;;;;;;;3.60;3.40;;;15.60;50.10;;;;;;5113784;28;20170;-55
2023/01/25 05:37:02;;;;;;;3.83;3.53;;;15.60;50.10;;;;;;5113226;28;20173;-57
2023/01/25 05:39:28;;;;;;;3.60;3.40;;;15.60;50.20;;;;;;5113926;28;20178;-56
2023/01/25 05:41:53;;;;;;;3.92;3.67;;;15.60;50.20;;;;;;5113399;28;20216;-54
2023/01/25 05:44:19;;;;;;;3.55;3.30;;;15.60;50.20;;;;;;5113113;28;20172;-57
2023/01/25 05:46:44;;;;;;;3.45;3.25;;;15.60;50.30;;;;;;5113397;28;20285;-54
2023/01/25 05:49:10;;;;;;;4.10;3.80;;;15.60;50.30;;;;;;5113274;28;20175;-54
2023/01/25 05:51:37;;;;;;;4.03;3.72;;;15.60;50.10;;;;;;5112656;28;20256;-49
2023/01/25 05:54:05;;;;;;;3.80;3.50;;;15.60;50.30;;;;;;5113900;28;20181;-51
2023/01/25 05:56:32;;;;;;;4.45;4.15;;;15.50;50.10;;;;;;5113587;28;20173;-54
2023/01/25 05:58:58;;;;;;;3.80;3.50;;;15.50;50.20;;;;;;5113005;28;20177;-53
2023/01/25 06:01:24;;;;;;;4.32;4.03;;;15.50;50.30;;;;;;5113565;28;20583;-54
2023/01/25 06:03:49;;;;;;;3.97;3.67;;;15.50;50.20;;;;;;5113275;28;20733;-54
2023/01/25 06:06:15;;;;;;;3.97;3.70;;;15.50;50.30;;;;;;5112643;28;20777;-55
2023/01/25 06:08:40;;;;;;;3.95;3.65;;;15.50;50.20;;;;;;5113327;28;20181;-53
2023/01/25 06:11:10;;;;;;;4.30;4.00;;;15.50;50.20;;;;;;5113548;28;20530;-49
2023/01/25 06:13:36;;;;;;;4.38;4.07;;;15.50;50.30;;;;;;5112462;28;20222;-52
2023/01/25 06:16:01;;;;;;;4.28;3.97;;;15.50;50.30;;;;;;5113388;28;20181;-55
2023/01/25 06:18:28;;;;;;;4.00;3.70;;;15.50;50.30;;;;;;5112533;28;20216;-53
2023/01/25 06:20:55;;;;;;;3.85;3.55;;;15.40;50.30;;;;;;5112942;28;20263;-54
2023/01/25 06:23:21;;;;;;;4.10;3.80;;;15.50;50.40;;;;;;5113536;28;20248;-54
2023/01/25 06:25:46;;;;;;;4.15;3.85;;;15.40;50.20;;;;;;5112273;28;21104;-49
2023/01/25 06:28:12;;;;;;;4.10;3.80;;;15.40;50.30;;;;;;5113324;28;20671;-50
2023/01/25 06:30:37;;;;;;;4.00;3.70;;;15.40;50.30;;;;;;5113062;28;20256;-51
2023/01/25 06:33:03;;;;;;;4.47;4.18;;;15.40;50.30;;;;;;5112438;28;20218;-49
2023/01/25 06:35:30;;;;;;;4.18;3.88;;;15.40;50.30;;;;;;5113062;28;20581;-53
2023/01/25 06:37:56;;;;;;;4.20;3.90;;;15.50;50.30;;;;;;5113228;28;20173;-54
2023/01/25 06:40:22;;;;;;;4.65;4.28;;;15.50;50.20;;;;;;5112534;28;20170;-55
2023/01/25 06:42:47;;;;;;;4.18;3.88;;;15.50;50.10;;;;;;5112886;28;20683;-52
2023/01/25 06:45:13;;;;;;;4.30;4.00;;;15.60;50.10;;;;;;5113257;28;20655;-54
2023/01/25 06:47:39;;;;;;;4.57;4.28;;;15.50;50.10;;;;;;5112066;28;20211;-54
2023/01/25 06:50:05;;;;;;;4.72;4.43;;;15.50;50.80;;;;;;5113112;28;20192;-55
2023/01/25 06:52:30;;;;;;;4.40;4.05;;;15.50;50.20;;;;;;5113020;28;20181;-53
2023/01/25 06:54:56;;;;;;;4.43;4.13;;;15.50;50.20;;;;;;5112176;28;20206;-53
2023/01/25 06:57:22;;;;;;;4.68;4.38;;;15.50;50.20;;;;;;5113094;28;20173;-53
2023/01/25 06:59:47;;;;;;;4.80;4.40;;;15.50;50.20;;;;;;5112723;28;20639;-54
2023/01/25 07:02:16;;;;;;;4.63;4.22;;;15.50;50.20;;;;;;5115889;28;20233;-54
2023/01/25 07:04:42;;;;;;;3.65;3.35;;;15.50;50.30;;;;;;5116375;28;20194;-50
2023/01/25 07:07:08;;;;;;;3.50;3.30;;;15.60;50.50;;;;;;5116921;28;20287;-54
2023/01/25 07:09:34;;;;;;;3.42;3.22;;;15.70;50.50;;;;;;5116084;28;20174;-51
2023/01/25 07:12:00;;;;;;;3.55;3.33;;;15.80;50.30;;;;;;5117082;28;20181;-52
2023/01/25 07:14:26;;;;;;;3.33;3.13;;;16.00;50.00;;;;;;5116757;28;20180;-50
2023/01/25 07:16:52;;;;;;;3.40;3.10;;;16.20;49.80;;;;;;5115409;28;20217;-54
2023/01/25 07:19:17;;;;;;;3.13;2.92;;;16.40;49.60;;;;;;5116472;28;20507;-51
2023/01/25 07:21:43;;;;;;;3.38;3.17;;;16.60;49.30;;;;;;5115831;28;20183;-54
2023/01/25 07:24:13;;;;;;;3.05;2.85;;;16.80;49.10;;;;;;5116610;28;20172;-48
2023/01/25 07:26:38;;;;;;;2.88;2.67;;;17.10;48.70;;;;;;5097925;28;20209;-52
2023/01/25 07:29:04;;;;;;;2.92;2.72;;;17.40;47.90;;;;;;5115813;28;20169;-47
2023/01/25 07:31:29;;;;;;;3.10;2.90;;;17.60;47.70;;;;;;5116317;28;20196;-53
2023/01/25 07:33:56;;;;;;;3.17;2.97;;;17.60;47.70;;;;;;5097775;28;20165;-52
2023/01/25 07:36:21;;;;;;;3.00;2.80;;;17.60;47.70;;;;;;5115660;28;20575;-52
2023/01/25 07:38:47;;;;;;;3.20;3.00;;;17.60;47.70;;;;;;5115892;28;20655;-51
2023/01/25 07:41:15;;;;;;;2.83;2.63;;;17.60;47.70;;;;;;5116302;28;20261;-52
2023/01/25 07:43:40;;;;;;;3.25;3.03;;;17.60;47.70;;;;;;5115224;28;20181;-54
2023/01/25 07:46:10;;;;;;;2.90;2.70;;;17.60;47.70;;;;;;5116052;28;20211;-53
2023/01/25 07:48:35;;;;;;;3.17;2.88;;;17.60;47.70;;;;;;5115611;28;20246;-53
2023/01/25 07:51:11;;;;;;;3.53;3.22;;;17.60;47.70;;;;;;5115258;28;20272;-51
2023/01/25 07:53:42;;;;;;;3.30;3.00;;;17.50;47.80;;;;;;5115612;28;20173;-74
2023/01/25 07:56:08;;;;;;;3.50;3.22;;;17.60;47.80;;;;;;5115854;28;20177;-64
2023/01/25 07:58:34;;;;;;;4.32;3.22;;;17.60;48.00;;;;;;5115226;28;20173;-63
2023/01/25 08:01:26;;;;;;;2.90;2.70;;;17.50;47.90;;;;;;5115689;28;20517;-63
2023/01/25 08:03:52;;;;;;;3.33;3.13;;;17.60;48.00;;;;;;5110963;28;20721;-67
2023/01/25 08:06:29;;;;;;;3.80;3.50;;;17.60;48.00;;;;;;5115171;28;20212;-65
2023/01/25 08:08:55;;;;;;;4.22;3.83;;;17.60;48.30;;;;;;5115348;28;20181;-66
2023/01/25 08:11:23;;;;;;;4.38;3.97;;;17.50;48.20;;;;;;5114435;28;20177;-63
2023/01/25 08:13:48;;;;;;;4.50;4.10;;;17.50;48.40;;;;;;5115401;28;20339;-64
2023/01/25 08:16:19;;;;;;;4.43;3.70;;;17.60;48.20;;;;;;5115345;28;20645;-63
2023/01/25 08:18:55;;;;;;;4.13;3.60;;;17.60;48.30;;;;;;5114399;28;20177;-66
2023/01/25 08:21:23;;;;;;;4.10;3.80;;;17.60;48.30;;;;;;5115317;28;20244;-66
2023/01/25 08:23:48;;;;;;;4.10;3.70;;;17.60;48.90;;;;;;5114929;28;20575;-66
2023/01/25 08:26:15;;;;;;;3.92;3.63;;;17.60;48.30;;;;;;5114713;28;20676;-65
2023/01/25 08:28:41;;;;;;;4.10;3.70;;;17.40;48.40;;;;;;5115137;28;20174;-65
2023/01/25 08:31:07;;;;;;;5.82;4.22;;;17.40;48.60;;;;;;5115319;28;20180;-66
2023/01/25 08:33:33;;;;;;;3.38;3.17;;;17.30;48.60;;;;;;5114306;28;20529;-66
2023/01/25 08:35:58;;;;;;;3.83;3.40;;;17.10;48.80;;;;;;5115060;28;20654;-67
2023/01/25 08:38:24;;;;;;;4.47;3.65;;;17.10;49.00;;;;;;5114963;28;20226;-66
2023/01/25 08:40:49;;;;;;;6.50;4.38;;;17.10;49.00;;;;;;5113754;28;20184;-66
2023/01/25 08:43:15;;;;;;;4.03;3.72;;;17.10;49.00;;;;;;5115036;28;20183;-62
2023/01/25 08:45:40;;;;;;;4.25;3.90;;;17.10;49.10;;;;;;5114312;28;20204;-63
2023/01/25 08:48:06;;;;;;;4.13;3.72;;;17.20;49.20;;;;;;5114122;28;20260;-63
2023/01/25 08:50:32;;;;;;;3.90;3.60;;;17.30;49.10;;;;;;5114589;28;20260;-62
2023/01/25 08:52:57;;;;;;;3.38;3.10;;;17.60;48.90;;;;;;5114596;28;20173;-62
2023/01/25 08:55:23;;;;;;;3.40;3.20;;;17.80;48.40;;;;;;5114238;28;20173;-62
2023/01/25 08:57:48;;;;;;;3.50;3.20;;;18.00;48.00;;;;;;5114315;28;20169;-62
2023/01/25 09:00:14;;;;;;;3.95;3.65;;;18.10;48.00;;;;;;5113776;28;20250;-62
2023/01/25 09:02:40;;;;;;;3.92;3.35;;;18.10;48.00;;;;;;5113839;28;20650;-63
2023/01/25 09:05:06;;;;;;;4.30;3.90;;;18.20;47.90;;;;;;5114005;28;20252;-63
2023/01/25 09:07:36;;;;;;;4.03;3.63;;;18.20;47.80;;;;;;5113037;28;20316;-67
2023/01/25 09:10:02;;;;;;;4.53;3.35;;;18.30;47.70;;;;;;5114218;28;20169;-63
2023/01/25 09:12:28;;;;;;;3.55;3.25;;;18.40;47.60;;;;;;5114309;28;20654;-65
2023/01/25 09:14:53;;;;;;;3.65;3.35;;;18.50;47.60;;;;;;5113272;28;20195;-63
2023/01/25 09:17:19;;;;;;;3.50;3.20;;;18.50;47.50;;;;;;5114148;28;20216;-63
2023/01/25 09:19:46;;;;;;;3.60;3.40;;;18.60;47.50;;;;;;5113986;28;20650;-62
2023/01/25 09:22:12;;;;;;;3.20;2.88;;;18.50;47.40;;;;;;5113380;28;20177;-63
2023/01/25 09:24:37;;;;;;;3.40;3.10;;;18.70;47.40;;;;;;5113268;28;20169;-64
2023/01/25 09:27:03;;;;;;;5.80;3.33;;;18.60;47.50;;;;;;5114197;28;20586;-64
2023/01/25 09:29:28;;;;;;;4.38;3.30;;;18.60;47.50;;;;;;5113243;28;20535;-64
2023/01/25 09:31:54;;;;;;;3.47;3.17;;;18.70;47.50;;;;;;5113332;28;20683;-63
2023/01/25 09:34:21;;;;;;;3.83;3.38;;;18.70;47.50;;;;;;5113263;28;20183;-63
2023/01/25 09:36:46;;;;;;;3.53;3.22;;;18.60;47.40;;;;;;5112299;28;20306;-62
2023/01/25 09:39:12;;;;;;;4.07;3.45;;;18.70;47.40;;;;;;5113580;28;20710;-62
2023/01/25 09:41:55;;;;;;;3.97;3.67;;;18.70;47.30;;;;;;5112968;28;20521;-64
2023/01/25 09:44:51;;;;;;;3.40;3.17;;;18.70;47.40;;;;;;5095638;28;20267;-62
2023/01/25 09:47:29;;;;;;;3.90;3.60;;;18.80;47.40;;;;;;5097440;28;20209;-63
2023/01/25 09:50:22;;;;;;;3.60;3.30;;;18.70;47.40;;;;;;5077939;28;20912;-63
2023/01/25 09:53:03;;;;;;;3.10;2.90;;;18.80;47.30;;;;;;5080591;28;20205;-63
2023/01/25 09:55:28;;;;;;;3.88;3.53;;;18.80;47.30;;;;;;5113380;28;20649;-64
2023/01/25 09:57:55;;;;;;;3.42;3.20;;;18.80;47.30;;;;;;5094695;28;20271;-63
2023/01/25 10:00:49;;;;;;;3.72;3.42;;;18.80;47.30;;;;;;5079087;28;20222;-61
2023/01/25 10:03:25;;;;;;;3.60;3.30;;;18.80;47.30;;;;;;5101153;28;20191;-62
2023/01/25 10:05:53;;;;;;;3.85;3.55;;;18.80;47.20;;;;;;5094106;28;20236;-62
2023/01/25 10:08:30;;;;;;;3.30;2.95;;;18.80;47.20;;;;;;5078873;28;20181;-61
2023/01/25 10:11:29;;;;;;;3.13;2.92;;;19.00;47.80;;;;;;5112809;28;20188;-62
2023/01/25 10:13:55;;;;;;;3.78;3.47;;;19.00;47.20;;;;;;5041143;28;20185;-63
2023/01/25 10:16:37;;;;;;;3.75;3.45;;;19.00;47.00;;;;;;5113138;28;20173;-63
2023/01/25 10:19:18;;;;;;;3.15;2.83;;;19.00;47.00;;;;;;5094497;28;20269;-62
2023/01/25 10:21:48;;;;;;;3.40;3.10;;;18.90;47.10;;;;;;5113082;28;20185;-63
2023/01/25 10:24:41;;;;;;;3.53;3.33;;;19.00;47.10;;;;;;5078518;28;20627;-70
2023/01/25 10:27:18;;;;;;;4.35;3.80;;;19.00;47.10;;;;;;5079674;28;20213;-70
2023/01/25 10:29:44;;;;;;;4.10;3.80;;;19.00;47.00;;;;;;5113093;28;20180;-71
2023/01/25 10:32:31;;;;;;;4.20;3.90;;;19.00;46.90;;;;;;5094492;28;20173;-73
2023/01/25 10:34:57;;;;;;;4.60;4.20;;;19.00;46.80;;;;;;5097985;28;20179;-71
2023/01/25 10:37:27;;;;;;;4.90;4.50;;;18.90;46.70;;;;;;5117318;28;20176;-74
2023/01/25 10:40:11;;;;;;;5.25;4.75;;;19.00;46.60;;;;;;5081596;28;20177;-71
2023/01/25 10:42:40;;;;;;;5.32;4.85;;;19.00;46.40;;;;;;5116771;28;20173;-71
2023/01/25 10:45:15;;;;;;;5.53;5.07;;;18.90;46.30;;;;;;5098788;28;20260;-70
2023/01/25 10:47:49;;;;;;;5.25;4.85;;;19.00;46.10;;;;;;5116011;28;20261;-70
2023/01/25 10:50:37;;;;;;;5.10;4.70;;;18.90;46.10;;;;;;5081952;28;20177;-69
2023/01/25 10:53:02;;;;;;;5.60;5.20;;;18.90;46.10;;;;;;5116364;28;20179;-71
2023/01/25 10:55:28;;;;;;;5.75;5.25;;;18.90;46.00;;;;;;5115307;28;20169;-71
2023/01/25 10:57:56;;;;;;;5.18;4.78;;;18.90;46.70;;;;;;5098012;28;20257;-69
2023/01/25 11:00:26;;;;;;;4.50;4.20;;;18.90;46.20;;;;;;5115116;28;20177;-71
2023/01/25 11:02:52;;;;;;;4.50;4.18;;;18.90;46.20;;;;;;5116049;28;20191;-70
2023/01/25 11:05:18;;;;;;;5.35;4.35;;;19.00;46.30;;;;;;5098671;28;20204;-72
2023/01/25 11:07:47;;;;;;;4.63;4.32;;;18.90;46.30;;;;;;5115408;28;20241;-73
2023/01/25 11:10:32;;;;;;;4.40;4.00;;;19.00;46.30;;;;;;5116650;28;20176;-72
2023/01/25 11:13:16;;;;;;;4.28;3.97;;;19.10;46.30;;;;;;5116480;28;20654;-72
2023/01/25 11:15:44;;;;;;;4.30;4.00;;;19.00;46.40;;;;;;5115788;28;20215;-73
2023/01/25 11:18:15;;;;;;;4.10;3.80;;;19.00;46.50;;;;;;5116419;28;20282;-70
2023/01/25 11:20:40;;;;;;;3.70;3.40;;;19.00;46.50;;;;;;5098543;28;20227;-72
2023/01/25 11:23:22;;;;;;;4.15;3.85;;;19.00;46.50;;;;;;5115538;28;20169;-71
2023/01/25 11:25:48;;;;;;;4.68;4.22;;;19.00;46.50;;;;;;5098907;28;20193;-71
2023/01/25 11:28:22;;;;;;;3.90;3.67;;;19.10;46.50;;;;;;5115495;28;20234;-72
2023/01/25 11:30:48;;;;;;;3.92;3.63;;;19.00;46.70;;;;;;5116025;28;20173;-71
2023/01/25 11:33:15;;;;;;;4.20;3.88;;;19.10;46.60;;;;;;5098016;28;20185;-73
2023/01/25 11:36:19;;;;;;;4.00;3.70;;;19.10;46.60;;;;;;5098280;28;20249;-72
2023/01/25 11:38:56;;;;;;;4.00;3.70;;;19.20;46.50;;;;;;5115992;28;20204;-65
2023/01/25 11:41:35;;;;;;;3.83;3.53;;;19.00;46.60;;;;;;5097766;28;20176;-65
2023/01/25 11:44:21;;;;;;;3.85;3.47;;;19.00;46.70;;;;;;5097755;28;20177;-64
2023/01/25 11:46:53;;;;;;;3.95;3.30;;;19.10;46.80;;;;;;5063159;28;20213;-64
2023/01/25 11:49:31;;;;;;;4.75;3.40;;;19.10;46.80;;;;;;5096831;28;20208;-64
2023/01/25 11:52:15;;;;;;;3.38;3.10;;;19.20;46.70;;;;;;5098496;28;20634;-64
2023/01/25 11:55:02;;;;;;;3.72;3.47;;;19.20;46.80;;;;;;5099322;28;20189;-65
2023/01/25 11:57:52;;;;;;;3.50;3.20;;;19.20;46.80;;;;;;5115239;28;20226;-65
2023/01/25 12:00:26;;;;;;;3.80;3.40;;;19.20;47.00;;;;;;5115791;28;20173;-65
2023/01/25 12:03:10;;;;;;;4.88;3.22;;;19.30;47.00;;;;;;5097972;28;20181;-65
2023/01/25 12:06:03;;;;;;;3.20;2.90;;;19.30;46.90;;;;;;5094820;28;20632;-65
2023/01/25 12:08:50;;;;;;;3.35;2.97;;;19.40;46.90;;;;;;5086205;28;20182;-66
2023/01/25 12:11:26;;;;;;;5.53;3.50;;;19.40;47.00;;;;;;5094604;28;20216;-73
2023/01/25 12:14:16;;;;;;;3.67;3.13;;;19.40;47.00;;;;;;5061229;28;20209;-74
2023/01/25 12:17:18;;;;;;;5.75;4.53;;;19.40;46.90;;;;;;5094451;28;20222;-69
2023/01/25 12:19:53;;;;;;;4.53;4.10;;;19.30;46.60;;;;;;5076910;28;20260;-66
2023/01/25 12:22:31;;;;;;;4.72;3.30;;;19.30;46.70;;;;;;5076656;28;20576;-64
2023/01/25 12:25:38;;;;;;;5.38;3.53;;;19.40;46.80;;;;;;5094210;28;20299;-64
2023/01/25 12:28:18;;;;;;;6.55;3.53;;;19.50;46.60;;;;;;5091461;28;20194;-65
2023/01/25 12:30:54;;;;;;;4.53;3.22;;;19.50;46.70;;;;;;5094640;28;20178;-65
2023/01/25 12:33:45;;;;;;;4.07;3.08;;;19.50;46.70;;;;;;5075299;28;20174;-77
2023/01/25 12:36:12;;;;;;;4.10;3.80;;;19.50;46.70;;;;;;5094080;28;20192;-63
2023/01/25 12:38:42;;;;;;;5.25;4.43;;;19.50;46.70;;;;;;5075640;28;20264;-64
2023/01/25 12:41:16;;;;;;;6.15;4.57;;;19.50;46.70;;;;;;5076699;28;20170;-65
2023/01/25 12:43:47;;;;;;;6.07;4.93;;;19.60;46.70;;;;;;5059731;28;20177;-66
2023/01/25 12:46:20;;;;;;;10.18;4.78;;;19.60;46.90;;;;;;5093421;28;20247;-63
2023/01/25 12:48:47;;;;;;;5.68;4.03;;;19.60;46.80;;;;;;5076128;28;20178;-65
2023/01/25 12:51:13;;;;;;;9.85;4.68;;;19.70;46.90;;;;;;5076537;28;20279;-64
2023/01/25 12:53:46;;;;;;;4.60;3.95;;;19.70;46.90;;;;;;5058829;28;20198;-64
2023/01/25 12:56:47;;;;;;;6.22;3.65;;;19.70;47.00;;;;;;5094415;28;20531;-67
2023/01/25 12:59:38;;;;;;;4.15;3.85;;;19.80;47.20;;;;;;5093393;28;20176;-67